Time;durP1;ratioP1;P1;durP2;ratioP2;P2;SDS_P1;SDS_P2;PMS_P1;PMS_P2;Temp;Humidity;BMP_temperature;BMP_pressure;BME280_temperature;BME280_humidity;BME280_pressure;Samples;Min_cycle;Max_cycle;Signal;HPM_P1;HPM_P2
2023/02/20 00:00:29;;;;;;;;;55.75;45.50;;;;;11.45;53.79;102521.09;6278949;22;45146;-73
2023/02/20 00:02:54;;;;;;;;;58.00;44.50;;;;;11.42;53.93;102517.56;6277058;22;45208;-72
2023/02/20 00:05:20;;;;;;;;;57.00;45.50;;;;;11.33;53.94;102505.19;6278811;22;45588;-72
2023/02/20 00:07:45;;;;;;;;;61.00;47.00;;;;;11.37;54.05;102514.84;6278528;22;46312;-72
2023/02/20 00:10:11;;;;;;;;;55.25;43.25;;;;;11.34;53.93;102512.22;6278489;22;45185;-72
2023/02/20 00:12:37;;;;;;;;;57.25;45.00;;;;;11.33;54.08;102506.09;6251695;22;45248;-72
2023/02/20 00:15:03;;;;;;;;;60.00;47.50;;;;;11.32;53.92;102501.69;6278815;22;45175;-72
2023/02/20 00:17:28;;;;;;;;;64.50;50.25;;;;;11.30;53.83;102502.53;6277758;22;46197;-72
2023/02/20 00:19:54;;;;;;;;;63.75;48.75;;;;;11.24;53.89;102490.16;6278954;22;45362;-72
2023/02/20 00:22:23;;;;;;;;;58.50;46.75;;;;;11.22;54.05;102494.56;6279123;22;45394;-72
2023/02/20 00:24:49;;;;;;;;;63.75;50.00;;;;;11.17;54.00;102490.97;6278632;22;45296;-72
2023/02/20 00:27:14;;;;;;;;;63.00;50.25;;;;;11.15;54.17;102495.34;6251232;22;47394;-72
2023/02/20 00:29:40;;;;;;;;;64.25;49.50;;;;;11.08;54.31;102480.34;6278781;22;45148;-72
2023/02/20 00:32:05;;;;;;;;;64.75;50.25;;;;;11.05;54.02;102484.69;6277013;22;45125;-72
2023/02/20 00:34:31;;;;;;;;;61.00;49.00;;;;;11.01;54.24;102488.16;6278877;22;45192;-72
2023/02/20 00:36:56;;;;;;;;;66.25;49.75;;;;;10.94;53.97;102475.78;6278427;22;45244;-72
2023/02/20 00:39:22;;;;;;;;;64.00;51.00;;;;;10.92;54.29;102484.53;6278604;22;45167;-72
2023/02/20 00:41:48;;;;;;;;;68.00;52.25;;;;;10.89;54.33;102488.00;6278956;22;45114;-72
2023/02/20 00:44:14;;;;;;;;;66.00;53.00;;;;;10.83;54.23;102483.56;6278884;22;45411;-72
2023/02/20 00:46:39;;;;;;;;;64.75;51.00;;;;;10.73;54.58;102485.19;6250974;22;48498;-71
2023/02/20 00:49:04;;;;;;;;;63.00;49.00;;;;;10.70;54.43;102482.53;6278541;22;45311;-71
2023/02/20 00:51:31;;;;;;;;;65.75;51.25;;;;;10.60;54.43;102477.13;6278798;22;45316;-72
2023/02/20 00:53:56;;;;;;;;;67.50;51.50;;;;;10.64;54.58;102487.72;6278361;22;45248;-71
2023/02/20 00:56:21;;;;;;;;;62.00;50.25;;;;;10.61;54.33;102482.41;6250499;22;46003;-72
2023/02/20 00:58:47;;;;;;;;;63.50;51.75;;;;;10.61;54.36;102487.66;6278328;22;45257;-71
2023/02/20 01:01:13;;;;;;;;;66.25;52.50;;;;;10.57;54.53;102483.22;6278910;22;45194;-72
2023/02/20 01:03:39;;;;;;;;;69.25;53.25;;;;;10.54;54.40;102481.44;6250641;22;45280;-72
2023/02/20 01:06:05;;;;;;;;;61.75;49.00;;;;;10.54;54.35;102477.91;6277713;22;46105;-72
2023/02/20 01:08:30;;;;;;;;;63.00;50.50;;;;;10.51;54.29;102485.75;6278165;22;45119;-72
2023/02/20 01:10:55;;;;;;;;;66.75;52.50;;;;;10.51;54.57;102484.00;6251188;22;45213;-72
2023/02/20 01:13:21;;;;;;;;;68.00;53.25;;;;;10.48;54.63;102475.22;6278323;22;45465;-71
2023/02/20 01:15:46;;;;;;;;;65.00;51.00;;;;;10.46;54.64;102474.31;6278349;22;46050;-72
2023/02/20 01:18:12;;;;;;;;;66.75;52.00;;;;;10.43;54.58;102474.25;6277410;22;45212;-71
2023/02/20 01:20:38;;;;;;;;;67.75;52.75;;;;;10.37;54.54;102468.03;6278277;22;45142;-72
2023/02/20 01:23:03;;;;;;;;;65.75;52.25;;;;;10.35;54.61;102477.66;6278262;22;45311;-72
2023/02/20 01:25:28;;;;;;;;;65.75;52.00;;;;;10.37;54.63;102480.31;6278275;22;45230;-72
2023/02/20 01:27:54;;;;;;;;;68.00;52.75;;;;;10.33;54.58;102473.22;6277681;22;45340;-72
2023/02/20 01:30:20;;;;;;;;;65.75;51.50;;;;;10.29;54.58;102471.38;6278659;22;45256;-72
2023/02/20 01:32:45;;;;;;;;;66.50;53.00;;;;;10.31;54.68;102473.19;6250711;22;45511;-72
2023/02/20 01:35:10;;;;;;;;;61.25;49.75;;;;;10.26;54.50;102474.84;6250294;22;48123;-72
2023/02/20 01:37:36;;;;;;;;;65.75;51.25;;;;;10.25;54.71;102475.72;6278281;22;45320;-72
2023/02/20 01:40:02;;;;;;;;;66.00;50.25;;;;;10.22;54.64;102479.19;6278281;22;45216;-72
2023/02/20 01:42:31;;;;;;;;;68.25;51.50;;;;;10.23;54.67;102475.69;6278014;22;45304;-72
2023/02/20 01:45:36;;;;;;;;;60.50;49.00;;;;;10.22;54.62;102481.81;6277913;22;45268;-72
2023/02/20 01:48:02;;;;;;;;;66.00;52.00;;;;;10.20;54.80;102483.56;6179272;23;45356;-72
2023/02/20 01:50:34;;;;;;;;;66.25;51.25;;;;;10.16;54.32;102472.97;6260778;22;45651;-72
2023/02/20 01:53:22;;;;;;;;;64.00;52.25;;;;;10.16;54.76;102476.50;6277451;22;45460;-72
2023/02/20 01:56:06;;;;;;;;;25.50;21.75;;;;;10.13;54.60;102478.19;6277899;22;45271;-72
2023/02/20 01:58:40;;;;;;;;;66.25;51.50;;;;;10.15;54.76;102482.59;6275657;22;45783;-72
2023/02/20 02:01:05;;;;;;;;;65.75;52.25;;;;;10.11;54.71;102483.38;6277896;22;45158;-72
2023/02/20 02:03:35;;;;;;;;;64.25;50.75;;;;;10.13;54.73;102496.56;6277588;22;45184;-72
2023/02/20 02:06:03;;;;;;;;;65.25;50.00;;;;;10.06;54.77;102482.44;6249513;22;46738;-72
2023/02/20 02:08:30;;;;;;;;;63.75;50.50;;;;;10.09;54.82;102490.38;6277123;22;45174;-72
2023/02/20 02:11:14;;;;;;;;;65.00;50.50;;;;;10.12;54.85;102492.16;6277617;22;45364;-72
2023/02/20 02:13:42;;;;;;;;;59.25;49.00;;;;;10.08;54.87;102489.47;6249835;22;45370;-72
2023/02/20 02:16:37;;;;;;;;;59.25;47.50;;;;;10.07;54.80;102482.47;6249878;22;47038;-72
2023/02/20 02:19:21;;;;;;;;;66.50;49.75;;;;;10.08;54.63;102486.84;6276253;22;45297;-72
2023/02/20 02:22:38;;;;;;;;;60.00;48.00;;;;;10.06;54.81;102475.47;6249711;22;45330;-72
2023/02/20 02:25:18;;;;;;;;;54.75;45.25;;;;;10.06;54.60;102464.03;6224730;22;45345;-71
2023/02/20 02:28:08;;;;;;;;;61.50;47.75;;;;;10.05;54.77;102462.28;6248502;22;46772;-71
2023/02/20 02:30:57;;;;;;;;;57.25;47.00;;;;;10.04;54.91;102460.53;6277622;22;45376;-71
2023/02/20 02:33:46;;;;;;;;;62.25;49.25;;;;;10.04;54.77;102464.03;6249612;22;45193;-71
2023/02/20 02:36:33;;;;;;;;;60.00;48.00;;;;;10.03;54.94;102462.25;6259796;22;45600;-71
2023/02/20 02:39:01;;;;;;;;;64.00;49.25;;;;;10.02;54.92;102454.38;6277195;22;45299;-71
2023/02/20 02:41:26;;;;;;;;;58.75;47.25;;;;;10.01;54.90;102450.88;6250895;22;45400;-71
2023/02/20 02:44:04;;;;;;;;;62.25;48.25;;;;;10.01;54.90;102452.59;6279176;22;45279;-71
2023/02/20 02:46:44;;;;;;;;;63.00;49.75;;;;;9.98;54.81;102448.19;6278871;22;45265;-71
2023/02/20 02:49:27;;;;;;;;;61.25;48.00;;;;;9.98;54.92;102439.44;6279217;22;45335;-73
2023/02/20 02:51:55;;;;;;;;;59.50;46.50;;;;;9.98;55.21;102439.44;6277208;22;45287;-71
2023/02/20 02:54:26;;;;;;;;;63.75;47.75;;;;;9.94;54.89;102425.34;6278853;22;45676;-71
2023/02/20 02:57:12;;;;;;;;;60.00;46.75;;;;;9.94;54.88;102430.63;6250690;22;45299;-73
2023/02/20 02:59:37;;;;;;;;;58.25;46.75;;;;;9.88;55.06;102420.88;6278178;22;45290;-71
2023/02/20 03:02:10;;;;;;;;;55.50;44.75;;;;;9.86;54.85;102420.00;6279162;22;45237;-71
2023/02/20 03:04:37;;;;;;;;;54.00;44.75;;;;;9.82;55.08;102414.66;6252614;22;45280;-71
2023/02/20 03:07:15;;;;;;;;;53.25;45.00;;;;;9.82;55.08;102422.53;6278495;22;45419;-71
2023/02/20 03:09:46;;;;;;;;;54.50;43.75;;;;;9.79;55.22;102417.25;6277368;22;45363;-71
2023/02/20 03:12:13;;;;;;;;;54.25;44.25;;;;;9.79;55.17;102417.25;6279022;22;45237;-71
2023/02/20 03:17:48;;;;;;;;;56.00;45.00;;;;;9.72;55.10;102418.88;6277946;22;45245;-71
2023/02/20 03:20:17;;;;;;;;;52.00;43.00;;;;;9.71;55.26;102418.00;6276523;22;47747;-71
2023/02/20 03:22:53;;;;;;;;;52.50;42.50;;;;;9.71;55.14;102411.84;6277900;22;45165;-71
2023/02/20 03:25:26;;;;;;;;;51.75;43.00;;;;;9.68;55.16;102404.81;6279022;22;45296;-71
2023/02/20 03:27:58;;;;;;;;;49.50;40.00;;;;;9.69;55.26;102406.59;6278338;22;45336;-71
2023/02/20 03:30:29;;;;;;;;;55.75;45.25;;;;;9.69;55.27;102406.59;6278559;22;46027;-72
2023/02/20 03:44:14;;;;;;;;;52.75;41.00;;;;;9.65;55.21;102404.78;6278575;22;45182;-72
2023/02/20 03:46:42;;;;;;;;;55.75;44.75;;;;;9.62;55.21;102391.59;6278444;22;45285;-72
2023/02/20 03:49:13;;;;;;;;;53.50;42.00;;;;;9.58;55.07;102392.41;6278362;22;45417;-72
2023/02/20 03:51:40;;;;;;;;;51.00;40.50;;;;;9.59;55.27;102388.94;6250245;22;46897;-72
2023/02/20 03:54:06;;;;;;;;;54.00;44.00;;;;;9.55;55.12;102384.50;6278311;22;45324;-72
2023/02/20 03:56:55;;;;;;;;;25.25;21.75;;;;;9.54;55.10;102388.84;6276887;22;45296;-72
2023/02/20 04:00:04;;;;;;;;;52.00;44.00;;;;;9.54;55.10;102382.72;6276094;22;45331;-72
2023/02/20 04:02:35;;;;;;;;;56.50;42.75;;;;;9.49;55.33;102381.78;6183702;23;45544;-72
2023/02/20 04:05:06;;;;;;;;;51.75;41.00;;;;;9.49;55.30;102376.53;6267626;22;45256;-72
2023/02/20 04:07:59;;;;;;;;;50.25;41.00;;;;;9.51;55.28;102380.03;6278170;22;45345;-72
2023/02/20 04:10:30;;;;;;;;;47.75;40.00;;;;;9.46;55.16;102368.56;6278289;22;45375;-72
2023/02/20 04:12:58;;;;;;;;;51.50;41.50;;;;;9.47;55.58;102373.88;6278299;22;46443;-72
2023/02/20 04:15:24;;;;;;;;;53.25;41.25;;;;;9.45;55.29;102367.72;6250742;22;45284;-72
2023/02/20 04:17:57;;;;;;;;;48.75;40.50;;;;;9.41;55.43;102364.16;6277864;22;45248;-72
2023/02/20 04:20:22;;;;;;;;;52.00;41.50;;;;;9.37;55.54;102364.06;6278747;22;45272;-73
2023/02/20 04:22:51;;;;;;;;;49.75;40.00;;;;;9.35;55.47;102365.78;6278203;22;45134;-72
2023/02/20 04:25:17;;;;;;;;;49.00;38.00;;;;;9.33;55.44;102368.38;6250568;22;45856;-72
2023/02/20 04:27:42;;;;;;;;;46.50;37.75;;;;;9.26;55.47;102370.00;6278216;22;45316;-72
2023/02/20 04:30:09;;;;;;;;;49.00;38.50;;;;;9.27;55.70;102368.28;6250899;22;45546;-72
2023/02/20 04:32:34;;;;;;;;;48.25;39.75;;;;;9.21;55.64;102368.19;6278192;22;46079;-72
2023/02/20 04:35:00;;;;;;;;;52.50;41.25;;;;;9.17;55.54;102368.97;6278707;22;45284;-72
2023/02/20 04:37:25;;;;;;;;;47.00;39.00;;;;;9.16;55.50;102360.22;6250698;22;45420;-72
2023/02/20 04:39:50;;;;;;;;;44.75;38.25;;;;;9.13;55.52;102360.16;6278208;22;45171;-71
2023/02/20 04:42:16;;;;;;;;;48.00;39.50;;;;;9.13;55.69;102372.41;6278211;22;45223;-72
2023/02/20 04:44:42;;;;;;;;;48.25;40.25;;;;;9.08;55.45;102362.72;6278506;22;45291;-72
2023/02/20 04:47:12;;;;;;;;;49.00;38.00;;;;;9.08;55.59;102361.81;6278297;22;45212;-72
2023/02/20 04:49:37;;;;;;;;;48.75;39.50;;;;;9.06;55.11;102366.16;6250862;22;45791;-71
2023/02/20 04:52:03;;;;;;;;;43.75;36.75;;;;;9.03;55.64;102364.38;6278083;22;45343;-71
2023/02/20 04:54:28;;;;;;;;;47.00;38.00;;;;;9.04;55.55;102366.16;6277783;22;45222;-71
2023/02/20 04:56:53;;;;;;;;;43.25;35.75;;;;;9.03;55.51;102366.09;6278103;22;45244;-72
2023/02/20 04:59:19;;;;;;;;;44.50;36.00;;;;;8.99;55.67;102365.16;6278314;22;45252;-71
2023/02/20 05:01:48;;;;;;;;;40.75;35.50;;;;;9.02;55.73;102365.22;6277545;22;45287;-72
2023/02/20 05:04:15;;;;;;;;;48.50;37.50;;;;;9.01;55.57;102362.59;6250528;22;45277;-72
2023/02/20 05:06:43;;;;;;;;;38.75;33.75;;;;;8.99;55.65;102365.16;6278297;22;45233;-72
2023/02/20 05:09:09;;;;;;;;;49.50;39.75;;;;;8.96;55.21;102367.72;6278097;22;45251;-72
2023/02/20 05:11:36;;;;;;;;;47.25;36.50;;;;;8.96;55.61;102370.34;6250242;22;46993;-72
2023/02/20 05:14:01;;;;;;;;;49.25;39.00;;;;;8.93;55.61;102351.94;6250381;22;45508;-72
2023/02/20 05:16:27;;;;;;;;;43.25;36.50;;;;;8.93;55.50;102352.84;6278499;22;45359;-72
2023/02/20 05:18:52;;;;;;;;;41.50;36.00;;;;;8.94;55.51;102351.06;6269492;22;45386;-72
2023/02/20 05:24:01;;;;;;;;;46.75;37.50;;;;;8.94;55.48;102362.47;6277802;22;45613;-72
2023/02/20 05:26:26;;;;;;;;;47.00;37.00;;;;;8.89;55.56;102351.03;6276268;22;45299;-72
2023/02/20 05:28:52;;;;;;;;;47.00;37.00;;;;;8.89;55.82;102351.03;6301594;22;45413;-73
2023/02/20 05:31:17;;;;;;;;;49.25;39.00;;;;;8.87;55.75;102346.59;6277730;22;45207;-72
2023/02/20 05:33:43;;;;;;;;;52.25;40.50;;;;;8.87;55.93;102346.59;6277976;22;45195;-72
2023/02/20 05:36:08;;;;;;;;;55.50;44.75;;;;;8.81;55.71;102339.50;6278230;22;45215;-77
2023/02/20 05:38:33;;;;;;;;;41.25;35.75;;;;;8.74;55.97;102334.97;6277540;22;45342;-71
2023/02/20 05:40:59;;;;;;;;;49.50;39.50;;;;;8.78;55.98;102340.31;6275898;22;45824;-72
2023/02/20 05:43:24;;;;;;;;;46.75;37.00;;;;;8.77;56.01;102343.78;6275853;22;45370;-72
2023/02/20 05:45:49;;;;;;;;;49.25;39.50;;;;;8.74;55.44;102335.88;6277908;22;45324;-71
2023/02/20 05:48:15;;;;;;;;;43.50;35.00;;;;;8.68;56.15;102330.53;6277916;22;45364;-72
2023/02/20 05:50:40;;;;;;;;;47.75;38.25;;;;;8.71;56.01;102340.19;6277946;22;45349;-72
2023/02/20 05:53:06;;;;;;;;;45.00;36.00;;;;;8.63;56.30;102332.16;6277716;22;45377;-73
2023/02/20 05:55:32;;;;;;;;;45.75;36.50;;;;;8.63;55.92;102334.78;6276154;22;45361;-72
2023/02/20 05:57:58;;;;;;;;;48.00;39.25;;;;;8.65;56.00;102345.28;6277403;22;45290;-71
2023/02/20 06:00:23;;;;;;;;;50.25;41.50;;;;;8.58;56.17;102339.94;6275708;22;47718;-73
2023/02/20 06:02:49;;;;;;;;;51.75;40.00;;;;;8.57;56.20;102335.53;6278030;22;45269;-71
2023/02/20 06:05:15;;;;;;;;;42.75;34.00;;;;;8.57;56.19;102343.41;6277784;22;45819;-71
2023/02/20 06:07:45;;;;;;;;;43.00;33.75;;;;;8.51;55.91;102347.66;6277024;22;45326;-71
2023/02/20 06:10:10;;;;;;;;;47.50;37.25;;;;;8.51;55.87;102345.03;6277495;22;46770;-71
2023/02/20 06:12:36;;;;;;;;;53.50;43.50;;;;;8.51;55.89;102351.13;6277586;22;45355;-71
2023/02/20 06:15:01;;;;;;;;;43.00;36.00;;;;;8.49;55.86;102344.09;6277504;22;45223;-71
2023/02/20 06:17:28;;;;;;;;;43.50;37.75;;;;;8.48;56.01;102347.56;6276318;22;45472;-71
2023/02/20 06:19:54;;;;;;;;;45.00;38.75;;;;;8.43;55.93;102345.72;6303108;22;46920;-71
2023/02/20 06:22:19;;;;;;;;;47.75;37.00;;;;;8.43;56.02;102350.97;6279022;22;45101;-72
2023/02/20 06:24:46;;;;;;;;;43.50;36.00;;;;;8.39;56.07;102343.91;6276602;22;45367;-70
2023/02/20 06:27:11;;;;;;;;;40.00;32.75;;;;;8.42;55.74;102350.94;6278359;22;45507;-70
2023/02/20 06:29:37;;;;;;;;;44.00;36.25;;;;;8.39;55.81;102341.28;6277991;22;45492;-72
2023/02/20 06:32:02;;;;;;;;;40.25;33.50;;;;;8.37;56.11;102342.09;6279576;22;45080;-72
2023/02/20 06:34:31;;;;;;;;;46.00;38.00;;;;;8.36;56.00;102350.81;6277233;22;45591;-72
2023/02/20 06:36:58;;;;;;;;;43.00;37.50;;;;;8.37;55.91;102355.19;6279093;22;45196;-70
2023/02/20 06:39:24;;;;;;;;;43.00;36.50;;;;;8.36;56.01;102354.28;6278956;22;46275;-71
2023/02/20 06:41:49;;;;;;;;;42.00;35.25;;;;;8.34;56.16;102356.00;6279148;22;45160;-75
2023/02/20 06:44:14;;;;;;;;;42.50;35.25;;;;;8.28;55.96;102348.91;6279755;22;45383;-70
2023/02/20 06:46:40;;;;;;;;;49.75;38.00;;;;;8.31;56.18;102353.31;6279330;22;45521;-72
2023/02/20 06:49:05;;;;;;;;;39.50;35.50;;;;;8.28;55.84;102354.13;6277280;22;48035;-72
2023/02/20 06:51:33;;;;;;;;;41.50;34.75;;;;;8.30;55.99;102362.91;6279509;22;45150;-72
2023/02/20 06:54:00;;;;;;;;;37.25;33.75;;;;;8.30;55.98;102362.03;6279161;22;45223;-74
2023/02/20 06:56:28;;;;;;;;;39.75;34.00;;;;;8.26;56.15;102352.34;6277370;22;45393;-72
2023/02/20 06:58:54;;;;;;;;;43.50;36.50;;;;;8.18;56.05;102346.06;6278453;22;46129;-69
2023/02/20 07:01:22;;;;;;;;;63.25;50.50;;;;;8.20;56.11;102350.50;6278986;22;45758;-69
2023/02/20 07:03:49;;;;;;;;;68.75;53.25;;;;;8.24;56.12;102354.94;6279371;22;45250;-69
2023/02/20 07:06:15;;;;;;;;;53.00;43.50;;;;;8.21;56.02;102354.84;6279341;22;45417;-71
2023/02/20 07:08:40;;;;;;;;;48.00;38.25;;;;;8.22;55.79;102351.38;6276604;22;47178;-70
2023/02/20 07:11:06;;;;;;;;;31.75;28.00;;;;;8.08;56.03;102335.38;6279103;22;45268;-70
2023/02/20 07:13:31;;;;;;;;;44.25;35.00;;;;;8.21;56.19;102364.44;6279375;22;45385;-72
2023/02/20 07:15:56;;;;;;;;;43.00;35.00;;;;;8.18;56.03;102367.03;6279261;22;45376;-71
2023/02/20 07:18:22;;;;;;;;;40.75;35.00;;;;;8.16;56.21;102366.09;6278642;22;46105;-70
2023/02/20 07:20:52;;;;;;;;;37.00;30.75;;;;;8.12;56.37;102376.47;6279116;22;45428;-70
2023/02/20 07:23:17;;;;;;;;;44.25;37.00;;;;;8.11;56.26;102373.84;6279194;22;45271;-71
2023/02/20 07:25:43;;;;;;;;;35.75;30.50;;;;;8.08;56.23;102368.56;6251069;22;45238;-70
2023/02/20 07:28:08;;;;;;;;;43.00;34.75;;;;;8.05;56.06;102371.97;6278843;22;45323;-71
2023/02/20 07:30:34;;;;;;;;;39.25;33.50;;;;;8.04;56.09;102377.19;6251195;22;45343;-71
2023/02/20 07:32:59;;;;;;;;;42.00;35.50;;;;;8.02;56.28;102384.13;6251502;22;45375;-71
2023/02/20 07:35:25;;;;;;;;;41.50;36.75;;;;;8.00;56.38;102391.03;6279070;22;45352;-71
2023/02/20 07:37:50;;;;;;;;;47.25;37.25;;;;;7.98;56.37;102388.41;6278368;22;45861;-71
2023/02/20 07:40:15;;;;;;;;;44.75;37.00;;;;;7.97;56.43;102386.63;6279092;22;45316;-71
2023/02/20 07:42:41;;;;;;;;;44.00;35.25;;;;;7.92;56.55;102376.06;6279149;22;45250;-70
2023/02/20 07:45:06;;;;;;;;;42.75;35.50;;;;;7.95;56.37;102378.75;6279401;22;45249;-71
2023/02/20 07:47:32;;;;;;;;;46.50;39.50;;;;;7.91;56.50;102376.00;6278498;22;45601;-71
2023/02/20 07:49:57;;;;;;;;;59.50;45.75;;;;;7.93;56.63;102376.94;6251260;22;45291;-71
2023/02/20 07:52:22;;;;;;;;;49.75;40.25;;;;;7.96;56.31;102384.84;6251254;22;45194;-71
2023/02/20 07:54:48;;;;;;;;;56.00;44.50;;;;;7.97;56.53;102384.00;6278628;22;45178;-70
2023/02/20 07:57:14;;;;;;;;;53.00;41.75;;;;;7.98;56.43;102381.41;6250572;22;47717;-70
2023/02/20 07:59:40;;;;;;;;;59.75;47.50;;;;;7.97;56.54;102376.16;6278901;22;45221;-71
2023/02/20 08:02:05;;;;;;;;;47.75;36.25;;;;;8.01;56.23;102388.44;6251484;22;45268;-71
2023/02/20 08:04:34;;;;;;;;;51.50;39.25;;;;;8.01;56.63;102391.06;6279114;22;45402;-70
2023/02/20 08:06:59;;;;;;;;;45.75;39.50;;;;;8.01;56.61;102390.19;6276298;22;46793;-70
2023/02/20 08:09:25;;;;;;;;;42.50;35.75;;;;;8.01;56.38;102383.22;6251019;22;45276;-71
2023/02/20 08:11:50;;;;;;;;;43.75;38.50;;;;;8.03;56.59;102381.53;6279304;22;45226;-71
2023/02/20 08:14:16;;;;;;;;;47.25;38.00;;;;;8.00;56.70;102378.84;6279015;22;45550;-72
2023/02/20 08:16:41;;;;;;;;;41.75;35.75;;;;;8.07;56.65;102383.34;6278910;22;46030;-71
2023/02/20 08:19:06;;;;;;;;;47.75;36.00;;;;;8.10;56.63;102393.91;6272843;22;45422;-71
2023/02/20 08:21:31;;;;;;;;;48.00;37.25;;;;;8.12;56.89;102404.41;6276925;22;45360;-71
2023/02/20 08:23:57;;;;;;;;;49.50;38.25;;;;;8.12;56.58;102402.66;6278561;22;45413;-71
2023/02/20 08:26:22;;;;;;;;;40.25;35.25;;;;;8.12;56.87;102397.44;6278436;22;45779;-71
2023/02/20 08:28:49;;;;;;;;;47.00;37.50;;;;;8.12;56.89;102393.94;6276343;22;45278;-70
2023/02/20 08:31:14;;;;;;;;;47.25;37.50;;;;;8.16;57.07;102393.16;6277040;22;45204;-71
2023/02/20 08:33:39;;;;;;;;;50.50;40.00;;;;;8.18;56.96;102395.84;6279151;22;45127;-70
2023/02/20 08:36:05;;;;;;;;;43.50;36.25;;;;;8.21;56.72;102399.38;6278610;22;45312;-71
2023/02/20 08:38:33;;;;;;;;;43.75;36.25;;;;;8.24;57.16;102403.81;6277918;22;45203;-71
2023/02/20 08:41:03;;;;;;;;;49.75;39.25;;;;;8.26;56.99;102404.72;6278961;22;45385;-71
2023/02/20 08:43:28;;;;;;;;;47.75;40.00;;;;;8.31;57.04;102405.72;6278389;22;45255;-70
2023/02/20 08:45:55;;;;;;;;;43.25;37.25;;;;;8.31;57.12;102397.84;6302419;22;47696;-71
2023/02/20 08:48:20;;;;;;;;;37.50;30.25;;;;;8.35;56.89;102393.56;6278593;22;45226;-71
2023/02/20 08:50:46;;;;;;;;;46.75;36.75;;;;;8.42;57.09;102396.34;6279021;22;45144;-71
2023/02/20 08:53:12;;;;;;;;;37.25;33.50;;;;;8.46;57.06;102389.47;6278549;22;45497;-71
2023/02/20 08:55:38;;;;;;;;;48.75;39.75;;;;;8.52;57.15;102393.97;6278608;22;46030;-71
2023/02/20 08:58:04;;;;;;;;;59.00;44.75;;;;;8.57;57.44;102390.56;6278480;22;45303;-71
2023/02/20 09:00:29;;;;;;;;;53.00;42.50;;;;;8.65;57.27;102392.47;6277037;22;45284;-71
2023/02/20 09:02:54;;;;;;;;;47.25;38.25;;;;;8.72;57.24;102395.25;6278870;22;45193;-71
2023/02/20 09:05:20;;;;;;;;;49.75;39.00;;;;;8.78;57.19;102392.75;6276152;22;46848;-71
2023/02/20 09:07:45;;;;;;;;;51.00;41.25;;;;;8.87;57.30;102385.94;6278059;22;45281;-70
2023/02/20 09:10:11;;;;;;;;;51.00;41.00;;;;;8.96;57.17;102382.59;6278777;22;45341;-71
2023/02/20 09:12:38;;;;;;;;;49.00;39.25;;;;;9.08;57.48;102390.66;6278431;22;45588;-71
2023/02/20 09:15:04;;;;;;;;;47.25;39.75;;;;;9.14;57.46;102388.16;6278500;22;45314;-71
2023/02/20 09:17:29;;;;;;;;;47.50;38.00;;;;;9.24;57.50;102391.84;6278029;22;45423;-70
2023/02/20 09:19:54;;;;;;;;;50.25;42.25;;;;;9.33;57.37;102386.72;6278907;22;45752;-70
2023/02/20 09:22:24;;;;;;;;;58.75;46.50;;;;;9.47;57.48;102388.72;6278501;22;45220;-70
2023/02/20 09:24:51;;;;;;;;;43.00;35.25;;;;;9.61;57.40;102397.72;6278278;22;46454;-70
2023/02/20 09:27:16;;;;;;;;;55.00;46.00;;;;;9.72;57.60;102396.16;6276996;22;45316;-70
2023/02/20 09:29:43;;;;;;;;;52.50;41.25;;;;;9.86;57.60;102385.84;6278701;22;45459;-70
2023/02/20 09:32:09;;;;;;;;;47.25;39.50;;;;;9.97;57.42;102382.50;6278470;22;45366;-70
2023/02/20 09:34:34;;;;;;;;;51.00;42.25;;;;;10.15;57.67;102384.50;6278418;22;45214;-71
2023/02/20 09:37:00;;;;;;;;;51.25;42.00;;;;;10.28;57.70;102391.69;6278534;22;45220;-71
2023/02/20 09:39:25;;;;;;;;;50.50;41.00;;;;;10.43;57.53;102375.28;6278361;22;45170;-71
2023/02/20 09:42:07;;;;;;;;;52.00;42.75;;;;;10.65;57.80;102384.28;6250549;22;45467;-71
2023/02/20 09:44:49;;;;;;;;;49.50;40.25;;;;;10.83;57.73;102382.72;6278308;22;45421;-71
2023/02/20 09:47:44;;;;;;;;;49.25;37.75;;;;;11.03;57.80;102375.94;6278214;22;45276;-70
2023/02/20 09:50:21;;;;;;;;;51.50;41.00;;;;;11.17;57.88;102368.19;6280019;22;45260;-70
2023/02/20 09:53:13;;;;;;;;;49.75;39.75;;;;;11.36;57.93;102371.00;6279282;22;45285;-70
2023/02/20 09:55:40;;;;;;;;;47.25;39.00;;;;;11.55;57.88;102372.88;6279543;22;46197;-70
2023/02/20 09:58:11;;;;;;;;;45.25;37.25;;;;;11.65;58.15;102354.53;6279322;22;45272;-70
2023/02/20 10:00:38;;;;;;;;;44.50;36.00;;;;;11.90;58.05;102373.13;6279855;22;45164;-72
2023/02/20 10:03:31;;;;;;;;;47.25;38.50;;;;;12.07;57.86;102370.63;6279420;22;45264;-70
2023/02/20 10:05:58;;;;;;;;;50.50;36.50;;;;;12.25;57.99;102362.81;6279624;22;45252;-70
2023/02/20 10:08:24;;;;;;;;;42.50;35.75;;;;;12.52;58.06;102369.06;6279037;22;45142;-70
2023/02/20 10:10:51;;;;;;;;;44.00;36.00;;;;;12.73;58.06;102370.91;6279695;22;45263;-70
2023/02/20 10:13:53;;;;;;;;;37.25;32.50;;;;;12.98;57.99;102365.66;6279372;22;45431;-72
2023/02/20 10:16:37;;;;;;;;;41.50;34.75;;;;;13.23;57.84;102360.41;6279566;22;46371;-70
2023/02/20 10:19:18;;;;;;;;;42.50;36.00;;;;;13.45;57.89;102356.94;6278791;22;45205;-71
2023/02/20 10:22:02;;;;;;;;;30.00;27.00;;;;;13.67;57.90;102356.03;6252117;22;45291;-72
2023/02/20 10:24:45;;;;;;;;;41.25;34.75;;;;;13.85;57.99;102353.38;6279162;22;45236;-70
2023/02/20 10:27:26;;;;;;;;;42.00;33.50;;;;;14.03;58.22;102354.22;6279061;22;45198;-70
2023/02/20 10:29:54;;;;;;;;;38.00;31.75;;;;;14.16;58.21;102345.34;6251418;22;45753;-71
2023/02/20 10:32:39;;;;;;;;;34.50;30.50;;;;;14.27;58.14;102346.16;6251827;22;45234;-70
2023/02/20 10:35:11;;;;;;;;;38.00;33.00;;;;;14.50;57.85;102346.97;6251500;22;45384;-70
2023/02/20 10:37:43;;;;;;;;;38.75;33.50;;;;;14.68;58.11;102340.72;6278823;22;45186;-71
2023/02/20 10:40:15;;;;;;;;;38.50;32.50;;;;;14.86;57.81;102355.63;6251470;22;45872;-70
2023/02/20 10:42:48;;;;;;;;;42.00;34.75;;;;;14.95;57.68;102339.66;6279462;22;45422;-71
2023/02/20 10:45:37;;;;;;;;;38.00;29.75;;;;;15.16;57.88;102340.41;6279284;22;45146;-71
2023/02/20 10:48:06;;;;;;;;;29.75;25.50;;;;;15.35;57.63;102349.94;6278975;22;45335;-71
2023/02/20 10:50:40;;;;;;;;;33.75;26.50;;;;;15.52;57.38;102347.16;6251460;22;46118;-71
2023/02/20 10:53:12;;;;;;;;;38.00;31.75;;;;;15.69;57.49;102346.13;6279129;22;45180;-71
2023/02/20 10:55:47;;;;;;;;;22.50;18.50;;;;;15.84;57.07;102345.97;6278824;22;45434;-71
2023/02/20 10:58:25;;;;;;;;;16.75;15.25;;;;;15.99;57.13;102344.06;6276373;22;47474;-71
2023/02/20 11:00:58;;;;;;;;;12.50;12.50;;;;;16.10;56.94;102336.88;6277954;22;45352;-71
2023/02/20 11:03:41;;;;;;;;;12.75;10.50;;;;;16.22;56.90;102342.00;6279597;22;45268;-71
2023/02/20 11:06:10;;;;;;;;;10.50;9.75;;;;;16.28;56.42;102334.88;6279195;22;45196;-71
2023/02/20 11:08:37;;;;;;;;;16.00;14.25;;;;;16.39;56.07;102338.28;6277716;22;46227;-71
2023/02/20 11:11:23;;;;;;;;;11.75;8.25;;;;;16.42;55.99;102325.81;6279159;22;45313;-71
2023/02/20 11:13:49;;;;;;;;;13.00;11.50;;;;;16.49;56.05;102337.25;6279477;22;45094;-73
2023/02/20 11:16:50;;;;;;;;;12.00;11.25;;;;;16.54;55.98;102318.59;6279043;22;45375;-71
2023/02/20 11:19:42;;;;;;;;;12.00;10.25;;;;;16.61;55.86;102322.06;6244884;22;47056;-71
2023/02/20 11:22:08;;;;;;;;;14.75;13.50;;;;;16.65;55.99;102314.00;6278975;22;45357;-72
2023/02/20 11:24:39;;;;;;;;;19.50;15.75;;;;;16.71;55.81;102313.06;6278744;22;45180;-72
2023/02/20 11:27:24;;;;;;;;;16.50;14.50;;;;;16.78;55.58;102304.09;6278722;22;45244;-72
2023/02/20 11:30:19;;;;;;;;;18.25;14.00;;;;;16.87;55.74;102298.63;6278311;22;46221;-72
2023/02/20 11:32:46;;;;;;;;;9.25;8.25;;;;;16.93;55.48;102296.81;6278952;22;45372;-72
2023/02/20 11:35:18;;;;;;;;;8.75;8.75;;;;;17.00;55.21;102287.84;6279071;22;45421;-73
2023/02/20 11:37:45;;;;;;;;;9.25;8.00;;;;;17.03;55.61;102294.00;6278695;22;45178;-71
2023/02/20 11:40:31;;;;;;;;;14.75;8.00;;;;;17.13;55.45;102292.06;6277115;22;46936;-72
2023/02/20 11:43:20;;;;;;;;;13.50;11.00;;;;;17.18;55.15;102284.00;6279252;22;45342;-72